Flight Track Log - Related Links

Times and Time Zones

All times are in EDT time to prevent confusion due to time zone crossing. See the DAL374 flight status page for this flight to view local times or setup timezone preferences in your user account.

Time Position Orientation Groundspeed Altitude Reporting Facility
EDT Latitude Longitude Course Direction KTS MPH feet Rate Location/Type
Wed 10:12:33 PM 33.6333 -84.4000 53° Northeast 157 181 2,400  Level Atlanta TRACON
Wed 10:13:33 PM 33.6333 -84.3333 90° East 225 259 3,400 1,800 Climbing Atlanta TRACON
Wed 10:14:00 PM 33.7274 -84.0155 54° Northeast  Level FlightAware Approximate
Wed 10:14:33 PM 33.6333 -84.2333 90° East 277 319 6,000  Level Atlanta TRACON
Wed 10:15:00 PM 33.7954 -83.9023 54° Northeast  Level FlightAware Approximate
Wed 10:15:54 PM 33.6378 -84.1111 87° East 288 331 9,900  Level Atlanta Center
Wed 10:16:00 PM 33.8633 -83.7890 54° Northeast  Level FlightAware Approximate
Wed 10:16:54 PM 33.6942 -84.0239 52° Northeast 300 345 11,300  Level Atlanta Center
Wed 10:17:00 PM 33.9381 -83.6823 53° Northeast  Level FlightAware Approximate
Wed 10:17:54 PM 33.7608 -83.9389 47° Northeast 351 404 12,700  Level Atlanta Center
Wed 10:18:54 PM 33.8358 -83.8411 47° Northeast 381 438 14,600 2,000 Climbing Atlanta Center
Wed 10:19:54 PM 33.9150 -83.7358 48° Northeast 408 470 16,700 1,850 Climbing Atlanta Center
Wed 10:20:54 PM 33.9897 -83.6253 51° Northeast 423 487 18,300 1,450 Climbing Atlanta Center
Wed 10:21:54 PM 34.0622 -83.5047 54° Northeast 432 497 19,600 1,450 Climbing Atlanta Center
Wed 10:22:54 PM 34.1411 -83.3836 52° Northeast 445 512 21,200 1,400 Climbing Atlanta Center
Wed 10:23:54 PM 34.2175 -83.2575 54° Northeast 451 519 22,400 1,250 Climbing Atlanta Center
Wed 10:24:54 PM 34.2961 -83.1311 53° Northeast 462 532 23,700 1,300 Climbing Atlanta Center
Wed 10:25:54 PM 34.3783 -83.0019 52° Northeast 475 547 25,000 1,200 Climbing Atlanta Center
Wed 10:26:54 PM 34.4669 -82.8622 52° Northeast 480 552 26,100 1,000 Climbing Atlanta Center
Wed 10:27:54 PM 34.5492 -82.7300 53° Northeast 485 558 27,000 900 Climbing Atlanta Center
Wed 10:28:54 PM 34.6225 -82.5900 57° Northeast 485 558 27,900 800 Climbing Atlanta Center
Wed 10:29:54 PM 34.7022 -82.4547 54° Northeast 485 558 28,600 900 Climbing Atlanta Center
Wed 10:30:54 PM 34.7817 -82.3089 56° Northeast 498 573 29,700 1,100 Climbing Atlanta Center
Wed 10:31:54 PM 34.8589 -82.1706 56° Northeast 498 573 30,800 1,200 Climbing Atlanta Center
Wed 10:32:54 PM 34.9361 -82.0372 55° Northeast 498 573 32,100 1,100 Climbing Atlanta Center
Wed 10:33:54 PM 35.0092 -81.9036 56° Northeast 493 567 33,000 450 Climbing Atlanta Center
Wed 10:34:54 PM 35.0858 -81.7644 56° Northeast 488 562 33,000  Level Atlanta Center
Wed 10:35:54 PM 35.1564 -81.6306 57° Northeast 481 554 33,000  Level Atlanta Center
Wed 10:36:54 PM 35.2331 -81.4961 55° Northeast 481 554 33,000  Level Atlanta Center
Wed 10:37:54 PM 35.2972 -81.3769 57° Northeast 481 554 33,000  Level Atlanta Center
Wed 10:38:54 PM 35.3672 -81.2422 57° Northeast 465 535 33,000  Level Atlanta Center
Wed 10:39:54 PM 35.4469 -81.0892 57° Northeast 474 545 33,000  Level Atlanta Center
Wed 10:40:54 PM 35.5231 -80.9564 55° Northeast 474 545 33,000  Level Atlanta Center
Wed 10:43:03 PM 35.6722 -80.6803 56° Northeast 482 555 33,000  Level Washington Center
Wed 10:44:04 PM 35.7469 -80.5392 57° Northeast 487 560 33,000  Level Washington Center
Wed 10:45:05 PM 35.8233 -80.4081 54° Northeast 487 560 33,000  Level Washington Center
Wed 10:46:03 PM 35.8997 -80.2717 55° Northeast 482 555 33,000  Level Washington Center
Wed 10:47:04 PM 35.9758 -80.1375 55° Northeast 472 543 33,000  Level Washington Center
Wed 10:48:03 PM 36.0606 -79.9933 54° Northeast 470 541 33,000 50 Level Washington Center
Wed 10:49:04 PM 36.1361 -79.8614 55° Northeast 470 541 33,100  Climbing Washington Center
Wed 10:50:05 PM 36.2122 -79.7186 57° Northeast 486 559 33,000 -50 Descending Washington Center
Wed 10:51:04 PM 36.2789 -79.6011 55° Northeast 481 554 33,000  Level Washington Center
Wed 10:52:04 PM 36.3608 -79.4531 55° Northeast 474 545 33,000 -248 Level Washington Center
Wed 10:53:05 PM 36.4275 -79.3275 57° Northeast 474 545 32,500 -1,059 Descending Washington Center
Wed 10:54:03 PM 36.5025 -79.1939 55° Northeast 474 545 30,900 -1,815 Descending Washington Center
Wed 10:55:04 PM 36.5861 -79.0478 54° Northeast 474 545 28,900 -1,884 Descending Washington Center
Wed 10:56:04 PM 36.6608 -78.9086 56° Northeast 474 545 27,100 -1,686 Descending Washington Center
Wed 10:57:05 PM 36.7358 -78.7669 57° Northeast 485 558 25,500 -1,050 Descending Washington Center
Wed 10:58:04 PM 36.8061 -78.6322 57° Northeast 480 552 25,000 -252 Descending Washington Center
Wed 10:59:04 PM 36.8736 -78.5103 55° Northeast 475 547 25,000  Level Washington Center
Wed 11:00:15 PM 36.9458 -78.3778 56° Northeast 470 541 25,000  Level Washington Center
Wed 11:01:16 PM 37.0886 -78.2450 37° Northeast 470 541 25,000  Level Washington Center
Wed 11:02:17 PM 37.1800 -78.1622 36° Northeast 483 556 25,000  Level Washington Center
Wed 11:03:17 PM 37.3033 -78.0514 36° Northeast 488 562 25,000  Level Washington Center
Wed 11:04:16 PM 37.4158 -77.9531 35° Northeast 493 567 25,000  Level Washington Center
Wed 11:05:16 PM 37.5306 -77.8467 36° Northeast 498 573 25,000 -446 Level Washington Center
Wed 11:06:17 PM 37.6450 -77.7478 34° Northeast 498 573 24,100 -1,587 Descending Washington Center
Wed 11:07:17 PM 37.7531 -77.6508 35° Northeast 491 565 21,800 -2,339 Descending Washington Center
Wed 11:08:15 PM 37.8528 -77.5589 36° Northeast 468 539 19,500 -2,103 Descending Washington Center
Wed 11:09:14 PM 37.9458 -77.4719 36° Northeast 438 504 17,700 -2,000 Descending Washington Center
Wed 11:10:15 PM 38.0389 -77.3897 35° Northeast 416 479 15,500 -2,083 Descending Washington Center
Wed 11:11:15 PM 38.1297 -77.3103 35° Northeast 401 461 13,500 -1,934 Descending Washington Center
Wed 11:12:16 PM 38.2164 -77.2303 36° Northeast 389 448 11,600 -1,686 Descending Washington Center
Wed 11:13:16 PM 38.3008 -77.1528 36° Northeast 383 441 10,100 -807 Descending Washington Center
Wed 11:14:15 PM 38.4031 -77.1364 North 365 420 10,000 -50 Descending Washington Center
Wed 11:15:17 PM 38.5056 -77.1144 10° North 360 414 10,000  Level Washington Center
Wed 11:16:16 PM 38.6058 -77.0900 11° North 360 414 10,000  Level Washington Center
Wed 11:17:15 PM 38.7061 -77.0708 North 360 414 10,000 -900 Level Washington Center
Wed 11:18:16 PM 38.7872 -77.0883 350° North 313 360 8,200 -2,093 Descending Washington Center
Wed 11:19:24 PM 38.8667 -77.1667 322° Northwest 284 327 5,500 -2,239 Descending Potomac TRACON
Wed 11:20:30 PM 38.9333 -77.2333 322° Northwest 274 315 3,200 -1,143 Descending Potomac TRACON
Wed 11:21:30 PM 38.9833 -77.2000 27° Northeast 226 260 3,100 -100 Descending Potomac TRACON

Login

Don't have an account? Register now (free) for customized features, flight alerts, and more!